»·PEaware :: N463PA KAVX-KSAN

N463PA :: KAVX-KSAN

FLIGHT INFORMATION

Flight Status: Arrived
Operator: Privately registered:
United States
More flights under this callsign
Pilot: Anonymous 16342 (16342)
Aircraft: PIPER PA-44 SEMINOLE
(PA44)
More flights by this aircraft type
Origin: KAVX Catalina
United States
Destination: KSAN San Diego Intl-Lindbergh
United States
More flights between these airports :: More routes between these airports
Route: +SXC V208 OCN V23 MZB
File this flight plan on PilotEdge
Remarks: I-8 Attempt
Altitude:
(Current/Filed)
5,000ft
Speed:
(Current/Filed)
150kts
Departed: 11-Aug-18 07:37 AM
Arrived: 11-Aug-18 08:32 AM
Distance/Time
Traveled:
74nm/0:55
Distance/Time
To Go:
Arrived

Flight Plot

Page will automatically refresh every two minutes.


Map Options




Map Legend


Flown Route
Filed Route
Departure Airport
Arrival Airport
Navaid (VOR, NDB)
Fix

Horizontal Profiles

Position Reports

Time Latitude Longitude Heading Altitude Ground
Speed
11-Aug-18 07:22 33.403573 -118.415734 144 1605ft 0kts
11-Aug-18 07:23 33.403573 -118.415734 144 1605ft 0kts
11-Aug-18 07:24 33.403573 -118.415734 144 1605ft 0kts
11-Aug-18 07:25 33.403573 -118.415734 144 1605ft 0kts
11-Aug-18 07:26 33.403573 -118.415734 144 1605ft 0kts
11-Aug-18 07:27 33.403573 -118.415734 144 1605ft 0kts
11-Aug-18 07:28 33.403573 -118.415734 144 1605ft 0kts
11-Aug-18 07:29 33.403573 -118.415734 144 1605ft 0kts
11-Aug-18 07:30 33.403573 -118.415734 144 1605ft 0kts
11-Aug-18 07:31 33.403572 -118.415734 144 1605ft 0kts
11-Aug-18 07:32 33.403572 -118.415733 144 1605ft 0kts
11-Aug-18 07:33 33.403572 -118.415733 144 1605ft 0kts
11-Aug-18 07:34 33.405224 -118.414674 51 1605ft 14kts
11-Aug-18 07:35 33.407150 -118.411576 358 1605ft 0kts
11-Aug-18 07:36 33.407152 -118.411576 358 1605ft 0kts
11-Aug-18 07:37 33.407154 -118.411576 358 1605ft 0kts
11-Aug-18 07:38 33.403478 -118.418252 235 1644ft 90kts
11-Aug-18 07:39 33.386457 -118.447478 241 2363ft 126kts
11-Aug-18 07:40 33.370831 -118.487915 226 3117ft 142kts
11-Aug-18 07:41 33.354342 -118.463478 58 3857ft 146kts
11-Aug-18 07:42 33.372733 -118.420263 82 4608ft 155kts
11-Aug-18 07:43 33.368241 -118.367014 98 5009ft 172kts
11-Aug-18 07:44 33.360729 -118.309992 98 4992ft 167kts
11-Aug-18 07:45 33.353567 -118.255414 98 4989ft 165kts
11-Aug-18 07:46 33.346387 -118.200750 98 4984ft 168kts
11-Aug-18 07:47 33.339141 -118.145696 98 4995ft 166kts
11-Aug-18 07:48 33.331901 -118.091072 98 4992ft 166kts
11-Aug-18 07:49 33.324929 -118.038807 98 4988ft 168kts
11-Aug-18 07:50 33.317535 -117.983361 98 4980ft 168kts
11-Aug-18 07:51 33.310137 -117.927879 98 4957ft 169kts
11-Aug-18 07:52 33.302669 -117.872400 98 4957ft 168kts
11-Aug-18 07:53 33.295212 -117.817101 98 4959ft 168kts
11-Aug-18 07:54 33.287755 -117.761754 98 4959ft 168kts
11-Aug-18 07:55 33.279687 -117.706552 99 4953ft 169kts
11-Aug-18 07:56 33.271332 -117.651201 99 4952ft 168kts
11-Aug-18 07:57 33.263045 -117.596599 99 5000ft 167kts
11-Aug-18 07:58 33.255546 -117.541575 97 5000ft 168kts
11-Aug-18 07:59 33.248975 -117.486257 97 5001ft 168kts
11-Aug-18 08:00 33.242067 -117.431086 102 5003ft 168kts
11-Aug-18 08:01 33.203248 -117.401368 162 5004ft 176kts
11-Aug-18 08:02 33.158131 -117.382878 161 5004ft 167kts
11-Aug-18 08:03 33.114314 -117.364491 161 5009ft 166kts
11-Aug-18 08:04 33.082475 -117.351098 161 5012ft 166kts
11-Aug-18 08:05 33.038722 -117.332729 161 5010ft 166kts
11-Aug-18 08:06 32.994658 -117.314229 161 5010ft 166kts
11-Aug-18 08:07 32.950988 -117.295926 161 5014ft 166kts
11-Aug-18 08:08 32.907286 -117.277628 161 5021ft 166kts
11-Aug-18 08:09 32.863562 -117.259350 161 5024ft 166kts
11-Aug-18 08:10 32.819523 -117.240952 161 5024ft 174kts
11-Aug-18 08:11 32.778275 -117.222761 149 5009ft 134kts
11-Aug-18 08:12 32.756422 -117.193584 92 5030ft 118kts
11-Aug-18 08:13 32.754503 -117.153544 92 5023ft 136kts
11-Aug-18 08:14 32.752401 -117.108206 92 5003ft 133kts
11-Aug-18 08:15 32.750501 -117.068224 92 4974ft 101kts
11-Aug-18 08:16 32.748743 -117.031688 92 5015ft 124kts
11-Aug-18 08:17 32.746795 -116.989816 92 5001ft 127kts
11-Aug-18 08:18 32.744873 -116.948309 92 4995ft 118kts
11-Aug-18 08:19 32.743073 -116.910461 92 5006ft 115kts
11-Aug-18 08:20 32.741206 -116.869820 92 5016ft 137kts
11-Aug-18 08:21 32.715095 -116.847385 182 4651ft 140kts
11-Aug-18 08:22 32.675756 -116.848214 182 3839ft 140kts
11-Aug-18 08:23 32.654265 -116.870432 281 3526ft 123kts
11-Aug-18 08:24 32.662994 -116.911359 293 3509ft 134kts
11-Aug-18 08:25 32.677504 -116.953032 288 3510ft 140kts
11-Aug-18 08:26 32.687274 -116.996451 283 3500ft 128kts
11-Aug-18 08:27 32.696902 -117.040105 286 2704ft 128kts
11-Aug-18 08:28 32.706374 -117.077845 287 2165ft 116kts
11-Aug-18 08:29 32.714209 -117.110405 288 1541ft 84kts
11-Aug-18 08:30 32.720060 -117.134505 289 906ft 70kts
11-Aug-18 08:31 32.725438 -117.156576 290 461ft 73kts
11-Aug-18 08:32 32.731205 -117.179952 289 84ft 67kts
11-Aug-18 08:33 32.734270 -117.190952 1 18ft 8kts
11-Aug-18 08:34 32.734637 -117.190799 24 18ft 0kts
11-Aug-18 08:35 32.734558 -117.189076 106 18ft 21kts
11-Aug-18 08:36 32.733752 -117.185718 104 18ft 22kts
11-Aug-18 08:37 32.733073 -117.179610 11 18ft 7kts

Navigation Log

Ident Type
Flight plan parsing failed, navigation log unavailable